Terminal Aerodrome Forecast
Issued by NWS

Home | Current Version | Previous Version | Text Only | Print | Product List | Glossary On
Versions: 1 2 3 4 5 6 7 8 9 10 11 12 13 14 15 16 17
000
FTUS46 KMTR 230800 AAA
TAFSJC
TAF AMD
KSJC 230819Z 2308/2406 24006KT P6SM OVC025
     FM231000 21006KT P6SM OVC015
     FM231800 26008KT P6SM FEW030 BKN040
     FM240300 30009KT P6SM BKN030=

USA.gov is the U.S. government's official web portal to all federal, state and local government web resources and services.